West Barnstable, MA (02668)

9:21 PM EDT on July 25, 2016 (GMT -0400)
WEST BARNSTABLE | | Change Station

Elev 90 ft 41.72 °N, 70.39 °W | Updated 8 seconds ago

Clear
Clear
75.5 °F
Feels Like 76 °F
N
4.0
Wind Variable Wind from SE
Gusts 9.0 mph

Today
High -- | Low -- °F
--% Chance of Precip.
Yesterday
High -- | Low -- °F
Precip. -- in
Pressure 29.84 in
Visibility 10.0 miles
Clouds Clear
Heat Index 76 °F
Dew Point 71 °F
Humidity 86%
Rainfall 0.00 in
Snow Depth Not available.
5:29 AM 8:06 PM
Waning Gibbous, 60% visible
METAR KHYA 260056Z 20009KT 10SM CLR 24/21 A2984 RMK AO2 SLP105 T02440206
Pressure 29.84 in
Visibility 10.0 miles
Clouds Clear
Heat Index 76 °F
Dew Point 71 °F
Humidity 86%
Rainfall 0.00 in
Snow Depth Not available.
5:29 AM 8:06 PM
Waning Gibbous, 60% visible
METAR KHYA 260056Z 20009KT 10SM CLR 24/21 A2984 RMK AO2 SLP105 T02440206
Record highs are possible for parts of the Northeast Monday and Tuesday, as parts of the central U.S. take a little breather from the worst of summer's dog day heat.

Expansive high pressure in the upper atmosphere will focus on parts of the East and West this week, sending heat indices well into the triple digits from the Mid-Atlantic states into the South.

10-Day Weather Forecast

Almanac

Astronomy

Jul. 25, 2016 Rise Set
Actual Time
Civil Twilight
Nautical Twilight
Astronomical Twilight
Moon
Length of Visible Light
Length of Day
Tomorrow will be .
, % of the Moon is Illuminated

Today's Extremes

State Highs State Lows

Community

WunderPhotos

Upload Photos

1,927,487 photos uploaded!

WunderBlog® & News

Nearby

Air Quality

  Air Quality AQ Index Pollutant
Not available.

Snow Depth

Station Depth Elevation

Earthquake Activity

City Distance Mag. Time & Date
Minimum magnitude displayed is 2.5.

Coastal Water Temperatures

Place Temperature

Stations

Nearby Weather Stations

Station Location Temp. Windchill Dew Point Humidity Wind Precip. Elev Updated Type
                   

Watches & Warnings

There are currently no watches in effect.